createdAt,value
2023-04-02T00:02:21.482Z,61.13
2023-04-02T00:05:31.705Z,61.53
2023-04-02T00:08:00.244Z,61.19
2023-04-02T00:10:38.341Z,61.31
2023-04-02T00:13:11.167Z,60.12
2023-04-02T00:15:49.596Z,60.78
2023-04-02T00:18:21.452Z,61.97
2023-04-02T00:20:52.758Z,61.44
2023-04-02T00:23:19.558Z,61.34
2023-04-02T00:25:47.198Z,61.28
2023-04-02T00:28:16.050Z,61.02
2023-04-02T00:31:01.458Z,59.88
2023-04-02T00:33:32.680Z,60.67
2023-04-02T00:35:59.526Z,60.12
2023-04-02T00:38:33.306Z,59.52
2023-04-02T00:41:02.771Z,59.75
2023-04-02T00:43:32.326Z,59.63
2023-04-02T00:46:04.454Z,59.26
2023-04-02T00:48:33.585Z,60.81
2023-04-02T00:51:08.461Z,60.60
2023-04-02T00:53:35.880Z,60.49
2023-04-02T00:56:03.314Z,60.67
2023-04-02T00:58:33.216Z,61.11
2023-04-02T01:00:59.963Z,61.30
2023-04-02T01:03:36.569Z,60.43
2023-04-02T01:06:11.804Z,61.63
2023-04-02T01:08:47.456Z,60.33
2023-04-02T01:11:25.951Z,61.00
2023-04-02T01:14:11.290Z,60.65
2023-04-02T01:16:46.685Z,60.58
2023-04-02T01:19:27.029Z,60.39
2023-04-02T01:21:58.053Z,60.09
2023-04-02T01:24:26.415Z,60.31
2023-04-02T01:26:57.592Z,59.54
2023-04-02T01:29:24.049Z,59.62
2023-04-02T01:31:51.995Z,60.11
2023-04-02T01:34:20.785Z,60.38
2023-04-02T01:37:02.716Z,61.18
2023-04-02T01:39:37.775Z,60.82
2023-04-02T01:42:29.686Z,61.50
2023-04-02T01:45:10.964Z,61.04
2023-04-02T01:47:38.433Z,60.71
2023-04-02T01:50:33.449Z,60.68
2023-04-02T01:53:03.476Z,59.72
2023-04-02T01:55:48.918Z,59.96
2023-04-02T01:58:20.028Z,60.27
2023-04-02T02:00:50.486Z,59.97
2023-04-02T02:03:17.439Z,60.06
2023-04-02T02:05:44.271Z,59.63
2023-04-02T02:08:39.885Z,59.75
2023-04-02T02:11:14.453Z,59.86
2023-04-02T02:13:46.971Z,59.92
2023-04-02T02:16:17.795Z,59.70
2023-04-02T02:18:46.651Z,59.68
2023-04-02T02:21:22.704Z,59.40
2023-04-02T02:23:49.205Z,60.06
2023-04-02T02:26:16.029Z,59.54
2023-04-02T02:28:43.247Z,59.84
2023-04-02T02:31:18.531Z,60.10
2023-04-02T02:33:47.982Z,59.92
2023-04-02T02:36:28.599Z,60.06
2023-04-02T02:39:17.893Z,60.20
2023-04-02T02:42:01.195Z,59.76
2023-04-02T02:44:30.265Z,60.01
2023-04-02T02:47:01.110Z,60.35
2023-04-02T02:49:31.852Z,60.66
2023-04-02T02:52:08.935Z,60.98
2023-04-02T02:54:52.439Z,60.28
2023-04-02T02:57:26.331Z,59.90
2023-04-02T02:59:55.419Z,59.79
2023-04-02T03:02:25.257Z,59.65
2023-04-02T03:04:53.826Z,59.51
2023-04-02T03:07:25.571Z,59.57
2023-04-02T03:10:12.246Z,59.31
2023-04-02T03:12:44.064Z,58.95
2023-04-02T03:15:18.076Z,60.29
2023-04-02T03:17:48.926Z,60.03
2023-04-02T03:20:21.775Z,60.69
2023-04-02T03:23:04.751Z,62.67
2023-04-02T03:25:37.076Z,62.10
2023-04-02T03:28:13.149Z,62.75
2023-04-02T03:31:03.624Z,62.88
2023-04-02T03:33:34.211Z,62.58
2023-04-02T03:36:21.100Z,61.73
2023-04-02T03:39:00.283Z,62.00
2023-04-02T03:41:39.300Z,62.29
2023-04-02T03:44:16.543Z,60.77
2023-04-02T03:46:47.407Z,63.09
2023-04-02T03:49:20.405Z,63.05
2023-04-02T03:51:59.269Z,62.77
2023-04-02T03:54:26.083Z,62.92
2023-04-02T03:56:53.321Z,62.23
2023-04-02T03:59:30.399Z,61.95
2023-04-02T04:02:00.411Z,62.08
2023-04-02T04:04:29.303Z,60.72
2023-04-02T04:06:56.675Z,62.84
2023-04-02T04:09:34.818Z,61.79
2023-04-02T04:12:21.305Z,61.09
2023-04-02T04:15:01.139Z,62.08
2023-04-02T04:17:51.406Z,60.85
2023-04-02T04:20:24.670Z,61.08
2023-04-02T04:22:56.040Z,61.64
2023-04-02T04:25:30.333Z,60.09
2023-04-02T04:28:10.517Z,60.09
2023-04-02T04:31:09.479Z,60.83
2023-04-02T04:33:42.083Z,60.02
2023-04-02T04:36:30.737Z,60.99
2023-04-02T04:39:08.729Z,60.03
2023-04-02T04:41:38.798Z,60.02
2023-04-02T04:44:17.581Z,62.31
2023-04-02T04:46:55.937Z,63.40
2023-04-02T04:49:27.696Z,63.32
2023-04-02T04:51:57.538Z,62.90
2023-04-02T04:54:26.513Z,63.21
2023-04-02T04:56:57.739Z,62.27
2023-04-02T04:59:29.501Z,61.14
2023-04-02T05:02:01.912Z,60.17
2023-04-02T05:04:41.761Z,60.05
2023-04-02T05:07:14.047Z,60.00
2023-04-02T05:10:19.893Z,60.51
2023-04-02T05:12:59.558Z,61.96
2023-04-02T05:15:50.556Z,63.28
2023-04-02T05:18:24.960Z,62.70
2023-04-02T05:21:19.183Z,63.14
2023-04-02T05:24:00.047Z,62.50
2023-04-02T05:26:37.942Z,62.28
2023-04-02T05:29:20.669Z,62.09
2023-04-02T05:32:11.234Z,61.87
2023-04-02T05:34:39.347Z,61.68
2023-04-02T05:37:09.122Z,62.12
2023-04-02T05:39:36.490Z,62.72
2023-04-02T05:42:05.633Z,61.67
2023-04-02T05:45:04.060Z,60.47
2023-04-02T05:47:32.349Z,60.88
2023-04-02T05:50:05.682Z,60.22
2023-04-02T05:52:46.321Z,61.82
2023-04-02T05:55:12.767Z,60.27
2023-04-02T05:58:13.621Z,61.41
2023-04-02T06:01:01.443Z,61.33
2023-04-02T06:03:46.221Z,60.31
2023-04-02T06:06:25.736Z,59.84
2023-04-02T06:08:57.721Z,61.55
2023-04-02T06:11:32.909Z,60.88
2023-04-02T06:14:04.769Z,60.22
2023-04-02T06:16:36.740Z,60.02
2023-04-02T06:19:07.216Z,59.78
2023-04-02T06:21:34.294Z,60.50
2023-04-02T06:24:03.543Z,61.02
2023-04-02T06:26:37.758Z,59.88
2023-04-02T06:29:11.041Z,59.62
2023-04-02T06:31:46.899Z,59.13
2023-04-02T06:34:17.572Z,59.26
2023-04-02T06:36:54.902Z,58.87
2023-04-02T06:39:24.719Z,58.40
2023-04-02T06:42:03.393Z,58.31
2023-04-02T06:44:52.137Z,58.17
2023-04-02T06:47:37.720Z,57.72
2023-04-02T06:50:08.522Z,58.04
2023-04-02T06:52:46.529Z,58.04
2023-04-02T06:55:31.019Z,57.80
2023-04-02T06:57:57.794Z,57.63
2023-04-02T07:00:33.912Z,57.73
2023-04-02T07:03:02.907Z,57.56
2023-04-02T07:05:30.576Z,57.85
2023-04-02T07:07:57.235Z,56.73
2023-04-02T07:10:23.989Z,56.86
2023-04-02T07:12:50.606Z,57.09
2023-04-02T07:15:19.304Z,57.83
2023-04-02T07:17:46.810Z,57.52
2023-04-02T07:20:28.756Z,57.16
2023-04-02T07:22:57.142Z,57.08
2023-04-02T07:25:24.637Z,57.09
2023-04-02T07:27:52.090Z,56.95
2023-04-02T07:30:19.023Z,56.83
2023-04-02T07:32:46.004Z,56.05
2023-04-02T07:35:12.682Z,57.50
2023-04-02T07:37:39.332Z,56.65
2023-04-02T07:40:09.103Z,56.23
2023-04-02T07:42:35.765Z,56.44
2023-04-02T07:45:04.641Z,56.22
2023-04-02T07:47:32.465Z,56.44
2023-04-02T07:49:58.960Z,56.42
2023-04-02T07:52:25.578Z,58.28
2023-04-02T07:54:52.064Z,56.74
2023-04-02T07:57:19.149Z,57.59
2023-04-02T07:59:46.464Z,57.84
2023-04-02T08:02:23.222Z,57.58
2023-04-02T08:04:51.279Z,56.97
2023-04-02T08:07:19.123Z,56.51
2023-04-02T08:09:47.121Z,56.36
2023-04-02T08:12:16.581Z,56.45
2023-04-02T08:14:43.069Z,56.15
2023-04-02T08:17:09.666Z,56.61
2023-04-02T08:19:47.839Z,57.62
2023-04-02T08:22:18.690Z,59.05
2023-04-02T08:24:45.675Z,57.75
2023-04-02T08:27:15.215Z,57.08
2023-04-02T08:29:41.737Z,56.49
2023-04-02T08:32:14.296Z,57.36
2023-04-02T08:34:43.290Z,60.18
2023-04-02T08:37:12.480Z,60.66
2023-04-02T08:39:40.979Z,60.99
2023-04-02T08:42:23.886Z,60.52
2023-04-02T08:45:08.069Z,59.78
2023-04-02T08:47:41.209Z,60.87
2023-04-02T08:50:28.816Z,59.43
2023-04-02T08:52:56.397Z,58.85
2023-04-02T08:55:48.650Z,57.53
2023-04-02T08:58:30.424Z,59.40
2023-04-02T09:00:58.024Z,57.99
2023-04-02T09:03:30.018Z,58.22
2023-04-02T09:05:57.621Z,57.72
2023-04-02T09:08:25.920Z,61.71
2023-04-02T09:11:17.191Z,61.46
2023-04-02T09:13:48.864Z,58.88
2023-04-02T09:16:24.701Z,58.46
2023-04-02T09:18:52.861Z,58.15
2023-04-02T09:21:28.342Z,56.90
2023-04-02T09:23:55.792Z,57.62
2023-04-02T09:26:24.732Z,57.91
2023-04-02T09:28:52.839Z,57.67
2023-04-02T09:31:22.827Z,57.80
2023-04-02T09:33:51.467Z,58.43
2023-04-02T09:36:35.000Z,59.11
2023-04-02T09:39:07.192Z,58.11
2023-04-02T09:41:36.852Z,57.94
2023-04-02T09:44:23.667Z,56.87
2023-04-02T09:46:54.550Z,56.31
2023-04-02T09:49:23.821Z,57.06
2023-04-02T09:52:08.902Z,55.10
2023-04-02T09:54:41.433Z,56.64
2023-04-02T09:57:23.603Z,56.45
2023-04-02T10:00:29.911Z,55.81
2023-04-02T10:03:01.902Z,57.53
2023-04-02T10:05:40.070Z,56.06
2023-04-02T10:08:21.720Z,55.71
2023-04-02T10:10:53.249Z,54.28
2023-04-02T10:13:24.574Z,56.38
2023-04-02T10:16:25.678Z,58.12
2023-04-02T10:19:07.462Z,55.03
2023-04-02T10:21:37.281Z,54.73
2023-04-02T10:24:13.303Z,55.52
2023-04-02T10:26:54.784Z,54.82
2023-04-02T10:29:24.404Z,55.80
2023-04-02T10:32:08.863Z,55.41
2023-04-02T10:35:05.830Z,54.90
2023-04-02T10:37:35.173Z,55.70
2023-04-02T10:40:10.368Z,53.99
2023-04-02T10:42:48.438Z,54.46
2023-04-02T10:45:34.179Z,53.94
2023-04-02T10:48:06.709Z,54.14
2023-04-02T10:50:59.318Z,56.97
2023-04-02T10:53:34.878Z,55.52
2023-04-02T10:56:05.514Z,55.65
2023-04-02T10:58:34.359Z,57.27
2023-04-02T11:01:19.158Z,57.22
2023-04-02T11:03:54.810Z,56.87
2023-04-02T11:06:38.394Z,56.96
2023-04-02T11:09:07.390Z,56.79
2023-04-02T11:11:39.643Z,56.20
2023-04-02T11:14:11.981Z,57.83
2023-04-02T11:16:41.762Z,57.97
2023-04-02T11:19:21.619Z,55.92
2023-04-02T11:22:04.313Z,54.90
2023-04-02T11:24:38.762Z,57.65
2023-04-02T11:27:11.490Z,55.19
2023-04-02T11:29:43.384Z,55.49
2023-04-02T11:32:25.195Z,57.08
2023-04-02T11:35:05.891Z,56.57
2023-04-02T11:37:43.164Z,55.65
2023-04-02T11:40:13.947Z,56.33
2023-04-02T11:42:48.663Z,56.59
2023-04-02T11:45:21.357Z,56.47
2023-04-02T11:48:00.730Z,57.17
2023-04-02T11:50:47.868Z,55.92
2023-04-02T11:53:17.584Z,54.39
2023-04-02T11:55:46.534Z,56.29
2023-04-02T11:58:30.326Z,54.44
2023-04-02T12:01:07.815Z,53.27
2023-04-02T12:03:49.444Z,53.47
2023-04-02T12:06:42.268Z,53.36
2023-04-02T12:09:23.570Z,52.60
2023-04-02T12:11:52.132Z,51.88
2023-04-02T12:14:37.632Z,53.51
2023-04-02T12:17:08.387Z,53.17
2023-04-02T12:19:35.941Z,55.35
2023-04-02T12:22:02.515Z,55.11
2023-04-02T12:24:31.329Z,55.31
2023-04-02T12:27:16.515Z,55.02
2023-04-02T12:29:43.358Z,52.93
2023-04-02T12:32:30.250Z,55.23
2023-04-02T12:34:58.131Z,55.73
2023-04-02T12:37:29.255Z,55.05
2023-04-02T12:40:02.158Z,57.30
2023-04-02T12:42:31.963Z,57.94
2023-04-02T12:44:58.480Z,56.40
2023-04-02T12:47:25.320Z,56.02
2023-04-02T12:49:52.512Z,55.74
2023-04-02T12:52:21.306Z,57.60
2023-04-02T12:54:52.920Z,57.85
2023-04-02T12:57:39.868Z,59.18
2023-04-02T13:00:21.880Z,57.00
2023-04-02T13:02:50.489Z,57.91
2023-04-02T13:05:41.356Z,57.99
2023-04-02T13:08:19.820Z,57.57
2023-04-02T13:10:46.633Z,59.32
2023-04-02T13:13:17.248Z,57.93
2023-04-02T13:15:43.811Z,57.23
2023-04-02T13:18:13.245Z,58.04
2023-04-02T13:20:41.095Z,57.36
2023-04-02T13:23:29.857Z,55.79
2023-04-02T13:25:57.624Z,57.41
2023-04-02T13:28:24.166Z,57.58
2023-04-02T13:30:51.276Z,56.95
2023-04-02T13:33:17.844Z,56.65
2023-04-02T13:35:45.309Z,58.04
2023-04-02T13:38:11.849Z,56.77
2023-04-02T13:40:38.726Z,58.75
2023-04-02T13:43:06.049Z,58.77
2023-04-02T13:45:33.444Z,59.18
2023-04-02T13:48:01.870Z,59.09
2023-04-02T13:50:31.210Z,58.92
2023-04-02T13:52:59.732Z,59.39
2023-04-02T13:55:28.771Z,59.01
2023-04-02T13:57:56.187Z,59.97
2023-04-02T14:00:23.305Z,61.05
2023-04-02T14:02:59.638Z,61.82
2023-04-02T14:05:36.996Z,61.05
2023-04-02T14:08:08.968Z,60.41
2023-04-02T14:10:48.050Z,60.58
2023-04-02T14:13:51.888Z,58.59
2023-04-02T14:16:42.202Z,58.58
2023-04-02T14:19:21.272Z,59.19
2023-04-02T14:21:59.370Z,58.79
2023-04-02T14:24:38.951Z,58.64
2023-04-02T14:27:36.983Z,59.01
2023-04-02T14:30:04.903Z,59.71
2023-04-02T14:32:59.528Z,59.19
2023-04-02T14:35:33.926Z,60.19
2023-04-02T14:38:04.136Z,60.69
2023-04-02T14:40:40.410Z,60.86
2023-04-02T14:43:21.125Z,60.45
2023-04-02T14:45:47.636Z,58.92
2023-04-02T14:48:28.048Z,58.52
2023-04-02T14:51:11.892Z,59.62
2023-04-02T14:54:20.665Z,60.74
2023-04-02T14:57:23.027Z,61.30
2023-04-02T15:00:05.069Z,61.84
2023-04-02T15:02:38.010Z,61.64
2023-04-02T15:05:19.706Z,60.34
2023-04-02T15:07:53.958Z,61.91
2023-04-02T15:10:29.802Z,64.40
2023-04-02T15:12:58.172Z,64.62
2023-04-02T15:15:39.431Z,63.34
2023-04-02T15:18:16.243Z,62.31
2023-04-02T15:21:08.966Z,62.26
2023-04-02T15:24:06.054Z,63.21
2023-04-02T15:26:46.770Z,63.25
2023-04-02T15:29:37.127Z,62.38
2023-04-02T15:32:36.451Z,61.87
2023-04-02T15:35:14.786Z,60.04
2023-04-02T15:37:54.112Z,60.74
2023-04-02T15:40:55.196Z,60.40
2023-04-02T15:43:40.101Z,60.75
2023-04-02T15:46:26.327Z,60.19
2023-04-02T15:49:10.607Z,59.98
2023-04-02T15:51:52.944Z,60.38
2023-04-02T15:54:26.970Z,60.17
2023-04-02T15:57:10.374Z,60.36
2023-04-02T15:59:58.174Z,59.74
2023-04-02T16:02:52.391Z,61.37
2023-04-02T16:05:32.352Z,59.73
2023-04-02T16:08:37.305Z,59.07
2023-04-02T16:11:09.564Z,58.98
2023-04-02T16:13:38.514Z,58.41
2023-04-02T16:16:15.402Z,57.68
2023-04-02T16:19:15.992Z,57.94
2023-04-02T16:21:49.146Z,58.21
2023-04-02T16:24:15.675Z,57.09
2023-04-02T16:26:48.114Z,57.96
2023-04-02T16:29:55.482Z,57.65
2023-04-02T16:32:41.050Z,56.41
2023-04-02T16:37:50.909Z,57.26
2023-04-02T16:40:24.328Z,57.46
2023-04-02T16:43:17.902Z,56.77
2023-04-02T16:45:59.248Z,56.86
2023-04-02T16:48:49.622Z,55.55
2023-04-02T16:51:26.008Z,56.60
2023-04-02T16:54:01.971Z,56.92
2023-04-02T16:56:35.569Z,57.29
2023-04-02T16:59:37.372Z,56.84
2023-04-02T17:02:18.458Z,55.68
2023-04-02T17:04:47.830Z,56.19
2023-04-02T17:07:17.320Z,56.39
2023-04-02T17:09:54.124Z,56.42
2023-04-02T17:12:42.998Z,57.45
2023-04-02T17:15:26.740Z,57.10
2023-04-02T17:17:58.324Z,56.08
2023-04-02T17:20:25.529Z,55.82
2023-04-02T17:22:52.801Z,55.98
2023-04-02T17:25:32.344Z,56.76
2023-04-02T17:32:30.342Z,56.28
2023-04-02T17:34:57.830Z,55.66
2023-04-02T17:37:44.118Z,56.12
2023-04-02T17:40:26.233Z,56.28
2023-04-02T17:43:30.250Z,55.95
2023-04-02T17:46:03.338Z,57.27
2023-04-02T17:48:41.796Z,56.72
2023-04-02T17:55:20.922Z,57.23
2023-04-02T17:57:55.283Z,56.62
2023-04-02T18:00:25.383Z,56.85
2023-04-02T18:03:07.320Z,56.73
2023-04-02T18:05:44.757Z,55.25
2023-04-02T18:08:29.513Z,56.25
2023-04-02T18:11:19.034Z,56.95
2023-04-02T18:13:48.191Z,56.76
2023-04-02T18:16:23.714Z,55.57
2023-04-02T18:18:53.406Z,56.04
2023-04-02T18:21:38.758Z,55.18
2023-04-02T18:24:13.915Z,55.56
2023-04-02T18:26:55.564Z,55.29
2023-04-02T18:29:41.081Z,55.75
2023-04-02T18:32:29.223Z,55.52
2023-04-02T18:35:13.332Z,56.42
2023-04-02T18:37:58.265Z,56.97
2023-04-02T18:40:54.065Z,57.07
2023-04-02T18:43:33.002Z,56.28
2023-04-02T18:46:05.223Z,56.08
2023-04-02T18:49:10.368Z,55.68
2023-04-02T18:51:38.613Z,54.57
2023-04-02T18:54:14.607Z,56.35
2023-04-02T18:56:42.017Z,55.64
2023-04-02T18:59:46.638Z,57.33
2023-04-02T19:02:31.460Z,56.60
2023-04-02T19:05:28.786Z,55.42
2023-04-02T19:08:02.975Z,55.42
2023-04-02T19:10:35.656Z,54.38
2023-04-02T19:13:02.311Z,55.61
2023-04-02T19:15:37.317Z,54.88
2023-04-02T19:18:16.287Z,54.52
2023-04-02T19:20:52.327Z,54.69
2023-04-02T19:23:21.647Z,54.38
2023-04-02T19:26:05.659Z,54.95
2023-04-02T19:28:45.128Z,55.20
2023-04-02T19:31:19.011Z,55.05
2023-04-02T19:33:50.493Z,54.49
2023-04-02T19:36:20.920Z,55.61
2023-04-02T19:38:59.456Z,53.68
2023-04-02T19:41:48.174Z,53.76
2023-04-02T19:44:16.447Z,55.22
2023-04-02T19:46:43.534Z,53.70
2023-04-02T19:49:22.698Z,54.92
2023-04-02T19:51:50.170Z,53.89
2023-04-02T19:54:17.158Z,53.61
2023-04-02T19:56:44.026Z,55.56
2023-04-02T19:59:18.289Z,54.84
2023-04-02T20:01:46.094Z,53.48
2023-04-02T20:04:13.043Z,52.63
2023-04-02T20:06:39.637Z,53.49
2023-04-02T20:09:07.977Z,52.40
2023-04-02T20:11:35.646Z,53.66
2023-04-02T20:14:02.247Z,53.38
2023-04-02T20:16:29.053Z,53.27
2023-04-02T20:18:55.653Z,54.22
2023-04-02T20:21:22.203Z,52.93
2023-04-02T20:23:53.361Z,51.48
2023-04-02T20:26:20.781Z,53.34
2023-04-02T20:28:47.354Z,51.97
2023-04-02T20:31:16.598Z,52.23
2023-04-02T20:33:44.509Z,51.59
2023-04-02T20:36:14.343Z,52.96
2023-04-02T20:38:41.580Z,52.42
2023-04-02T20:41:08.555Z,51.42
2023-04-02T20:43:36.178Z,52.61
2023-04-02T20:46:05.694Z,53.75
2023-04-02T20:48:33.352Z,52.06
2023-04-02T20:51:02.042Z,52.17
2023-04-02T20:53:29.834Z,51.77
2023-04-02T20:56:26.548Z,52.10
2023-04-02T20:58:53.129Z,51.55
2023-04-02T21:01:30.358Z,51.50
2023-04-02T21:03:59.329Z,52.73
2023-04-02T21:06:28.517Z,52.75
2023-04-02T21:08:55.534Z,54.07
2023-04-02T21:11:22.696Z,52.10
2023-04-02T21:13:49.922Z,52.41
2023-04-02T21:16:22.505Z,51.77
2023-04-02T21:18:51.563Z,52.91
2023-04-02T21:21:18.813Z,52.78
2023-04-02T21:23:45.859Z,51.94
2023-04-02T21:26:14.997Z,52.05
2023-04-02T21:28:42.183Z,52.07
2023-04-02T21:31:16.743Z,53.40
2023-04-02T21:33:48.490Z,52.69
2023-04-02T21:36:16.626Z,52.56
2023-04-02T21:38:48.656Z,53.65
2023-04-02T21:41:16.717Z,52.73
2023-04-02T21:43:43.522Z,54.07
2023-04-02T21:46:10.644Z,53.71
2023-04-02T21:48:37.207Z,51.92
2023-04-02T21:51:18.106Z,52.00
2023-04-02T21:53:45.554Z,53.83
2023-04-02T21:56:15.416Z,53.35
2023-04-02T21:58:43.542Z,51.92
2023-04-02T22:01:17.160Z,52.43
2023-04-02T22:03:53.937Z,53.37
2023-04-02T22:06:22.636Z,51.98
2023-04-02T22:08:54.611Z,52.67
2023-04-02T22:11:23.819Z,52.68
2023-04-02T22:13:50.789Z,51.86
2023-04-02T22:16:22.284Z,52.64
2023-04-02T22:18:50.293Z,51.38
2023-04-02T22:21:18.015Z,52.17
2023-04-02T22:23:45.653Z,53.17
2023-04-02T22:26:13.220Z,52.88
2023-04-02T22:28:39.992Z,52.09
2023-04-02T22:31:16.080Z,52.81
2023-04-02T22:33:43.490Z,52.24
2023-04-02T22:36:10.973Z,50.27
2023-04-02T22:38:37.929Z,52.69
2023-04-02T22:41:13.017Z,51.19
2023-04-02T22:43:41.083Z,52.41
2023-04-02T22:46:08.743Z,52.77
2023-04-02T22:48:36.166Z,52.00
2023-04-02T22:51:03.059Z,51.69
2023-04-02T22:53:29.587Z,53.21
2023-04-02T22:56:01.823Z,52.09
2023-04-02T22:58:28.410Z,51.41
2023-04-02T23:00:54.979Z,51.99
2023-04-02T23:03:22.097Z,51.07
2023-04-02T23:06:00.983Z,51.36
2023-04-02T23:08:27.617Z,53.34
2023-04-02T23:11:01.972Z,51.86
2023-04-02T23:13:28.668Z,52.12
2023-04-02T23:15:55.395Z,53.61
2023-04-02T23:18:22.365Z,52.62
2023-04-02T23:20:48.966Z,52.47
2023-04-02T23:23:15.506Z,52.44
2023-04-02T23:25:43.022Z,51.34
2023-04-02T23:28:11.330Z,51.70
2023-04-02T23:30:38.128Z,51.72
2023-04-02T23:33:04.902Z,52.50
2023-04-02T23:35:31.524Z,51.24
2023-04-02T23:37:58.082Z,51.47
2023-04-02T23:40:24.657Z,51.68
2023-04-02T23:42:51.308Z,50.85
2023-04-02T23:45:17.880Z,51.91
2023-04-02T23:47:44.407Z,51.07
2023-04-02T23:50:11.371Z,50.17
2023-04-02T23:52:37.936Z,51.57
2023-04-02T23:55:04.721Z,51.08
2023-04-02T23:57:31.620Z,51.75
2023-04-02T23:59:58.202Z,52.15
